sensor_id;sensor_type;location;lat;lon;timestamp;temperature;humidity
752;DHT22;360;48.764;9.164;2022-11-20T00:00:18;6.90;99.90
752;DHT22;360;48.764;9.164;2022-11-20T00:02:46;6.90;99.90
752;DHT22;360;48.764;9.164;2022-11-20T00:05:13;6.80;99.90
752;DHT22;360;48.764;9.164;2022-11-20T00:07:39;6.90;99.90
752;DHT22;360;48.764;9.164;2022-11-20T00:10:07;6.80;99.90
752;DHT22;360;48.764;9.164;2022-11-20T00:12:34;6.80;99.90
752;DHT22;360;48.764;9.164;2022-11-20T00:15:01;6.80;99.90
752;DHT22;360;48.764;9.164;2022-11-20T00:17:27;6.80;99.90
752;DHT22;360;48.764;9.164;2022-11-20T00:19:56;6.80;99.90
752;DHT22;360;48.764;9.164;2022-11-20T00:22:22;6.60;99.90
752;DHT22;360;48.764;9.164;2022-11-20T00:24:49;6.80;99.90
752;DHT22;360;48.764;9.164;2022-11-20T00:27:16;6.80;99.90
752;DHT22;360;48.764;9.164;2022-11-20T00:29:43;6.90;99.90
752;DHT22;360;48.764;9.164;2022-11-20T00:32:09;6.80;99.90
752;DHT22;360;48.764;9.164;2022-11-20T00:34:36;6.80;99.90
752;DHT22;360;48.764;9.164;2022-11-20T00:37:04;6.90;99.90
752;DHT22;360;48.764;9.164;2022-11-20T00:39:31;6.90;99.90
752;DHT22;360;48.764;9.164;2022-11-20T00:41:58;6.90;99.90
752;DHT22;360;48.764;9.164;2022-11-20T00:44:25;6.90;99.90
752;DHT22;360;48.764;9.164;2022-11-20T00:46:51;6.90;99.90
752;DHT22;360;48.764;9.164;2022-11-20T00:49:18;7.10;99.90
752;DHT22;360;48.764;9.164;2022-11-20T00:51:45;7.00;99.90
752;DHT22;360;48.764;9.164;2022-11-20T00:54:13;7.00;99.90
752;DHT22;360;48.764;9.164;2022-11-20T00:56:40;6.90;77.30
752;DHT22;360;48.764;9.164;2022-11-20T00:59:09;6.80;61.40
752;DHT22;360;48.764;9.164;2022-11-20T01:01:37;6.90;75.00
752;DHT22;360;48.764;9.164;2022-11-20T01:04:04;6.80;99.90
752;DHT22;360;48.764;9.164;2022-11-20T01:06:32;6.70;99.90
752;DHT22;360;48.764;9.164;2022-11-20T01:09:00;6.70;99.90
752;DHT22;360;48.764;9.164;2022-11-20T01:11:30;6.70;99.90
752;DHT22;360;48.764;9.164;2022-11-20T01:13:58;6.70;95.70
752;DHT22;360;48.764;9.164;2022-11-20T01:16:27;6.70;92.90
752;DHT22;360;48.764;9.164;2022-11-20T01:18:57;6.70;78.80
752;DHT22;360;48.764;9.164;2022-11-20T01:21:25;6.80;52.50
752;DHT22;360;48.764;9.164;2022-11-20T01:23:53;6.70;47.10
752;DHT22;360;48.764;9.164;2022-11-20T01:26:21;6.80;15.80
752;DHT22;360;48.764;9.164;2022-11-20T01:28:51;6.70;23.80
752;DHT22;360;48.764;9.164;2022-11-20T01:31:20;6.70;23.60
752;DHT22;360;48.764;9.164;2022-11-20T01:33:52;6.70;68.40
752;DHT22;360;48.764;9.164;2022-11-20T01:36:20;6.60;39.80
752;DHT22;360;48.764;9.164;2022-11-20T01:38:47;6.60;5.90
752;DHT22;360;48.764;9.164;2022-11-20T01:41:15;6.60;1.00
752;DHT22;360;48.764;9.164;2022-11-20T01:43:57;6.50;6.70
752;DHT22;360;48.764;9.164;2022-11-20T01:46:24;6.40;25.60
752;DHT22;360;48.764;9.164;2022-11-20T01:48:54;6.30;50.30
752;DHT22;360;48.764;9.164;2022-11-20T01:51:26;6.30;64.00
752;DHT22;360;48.764;9.164;2022-11-20T01:53:58;6.20;62.20
752;DHT22;360;48.764;9.164;2022-11-20T01:56:27;6.20;93.90
752;DHT22;360;48.764;9.164;2022-11-20T01:58:58;6.20;85.40
752;DHT22;360;48.764;9.164;2022-11-20T02:01:26;6.20;95.10
752;DHT22;360;48.764;9.164;2022-11-20T02:03:53;6.40;97.90
752;DHT22;360;48.764;9.164;2022-11-20T02:06:24;6.40;17.30
752;DHT22;360;48.764;9.164;2022-11-20T02:08:52;6.50;1.00
752;DHT22;360;48.764;9.164;2022-11-20T02:11:19;6.40;1.00
752;DHT22;360;48.764;9.164;2022-11-20T02:13:46;6.50;1.00
752;DHT22;360;48.764;9.164;2022-11-20T02:16:16;6.70;1.00
752;DHT22;360;48.764;9.164;2022-11-20T02:18:45;6.80;1.00
752;DHT22;360;48.764;9.164;2022-11-20T02:21:27;6.30;1.00
752;DHT22;360;48.764;9.164;2022-11-20T02:24:03;6.20;1.00
752;DHT22;360;48.764;9.164;2022-11-20T02:26:34;6.10;1.00
752;DHT22;360;48.764;9.164;2022-11-20T02:29:03;6.10;24.50
752;DHT22;360;48.764;9.164;2022-11-20T02:31:36;6.10;36.40
752;DHT22;360;48.764;9.164;2022-11-20T02:34:04;6.10;15.40
752;DHT22;360;48.764;9.164;2022-11-20T02:36:32;6.10;10.60
752;DHT22;360;48.764;9.164;2022-11-20T02:39:00;6.20;1.00
752;DHT22;360;48.764;9.164;2022-11-20T02:41:31;6.40;4.70
752;DHT22;360;48.764;9.164;2022-11-20T02:43:58;6.20;1.00
752;DHT22;360;48.764;9.164;2022-11-20T11:09:01;6.20;1.00
752;DHT22;360;48.764;9.164;2022-11-20T11:11:32;8.10;99.90
752;DHT22;360;48.764;9.164;2022-11-20T11:14:05;8.00;99.90
752;DHT22;360;48.764;9.164;2022-11-20T11:16:32;7.90;99.90
752;DHT22;360;48.764;9.164;2022-11-20T11:19:06;8.00;99.90
752;DHT22;360;48.764;9.164;2022-11-20T11:21:33;8.20;99.90
752;DHT22;360;48.764;9.164;2022-11-20T11:24:04;8.20;99.90
752;DHT22;360;48.764;9.164;2022-11-20T11:26:31;8.20;99.90
752;DHT22;360;48.764;9.164;2022-11-20T11:28:59;8.20;99.90
752;DHT22;360;48.764;9.164;2022-11-20T11:31:27;8.20;99.90
752;DHT22;360;48.764;9.164;2022-11-20T11:34:04;8.20;99.90
752;DHT22;360;48.764;9.164;2022-11-20T11:36:32;8.30;99.90
752;DHT22;360;48.764;9.164;2022-11-20T11:39:00;8.40;78.50
752;DHT22;360;48.764;9.164;2022-11-20T11:41:32;8.50;31.20
752;DHT22;360;48.764;9.164;2022-11-20T11:44:12;8.60;1.00
752;DHT22;360;48.764;9.164;2022-11-20T11:46:59;8.70;1.00
752;DHT22;360;48.764;9.164;2022-11-20T11:49:26;8.80;1.00
752;DHT22;360;48.764;9.164;2022-11-20T11:52:03;8.80;1.00
752;DHT22;360;48.764;9.164;2022-11-20T11:54:35;8.90;99.90
752;DHT22;360;48.764;9.164;2022-11-20T11:57:09;8.90;99.90
752;DHT22;360;48.764;9.164;2022-11-20T11:59:54;8.90;99.90
752;DHT22;360;48.764;9.164;2022-11-20T12:02:31;8.70;55.70
752;DHT22;360;48.764;9.164;2022-11-20T12:05:02;8.70;1.00
752;DHT22;360;48.764;9.164;2022-11-20T12:07:39;8.90;99.90
752;DHT22;360;48.764;9.164;2022-11-20T12:10:15;9.00;1.00
752;DHT22;360;48.764;9.164;2022-11-20T12:12:46;9.30;66.20
752;DHT22;360;48.764;9.164;2022-11-20T12:15:25;9.40;1.00
752;DHT22;360;48.764;9.164;2022-11-20T12:17:52;9.60;44.90
752;DHT22;360;48.764;9.164;2022-11-20T12:20:20;9.70;1.00
752;DHT22;360;48.764;9.164;2022-11-20T12:22:53;9.80;99.90
752;DHT22;360;48.764;9.164;2022-11-20T12:25:25;9.90;99.90
752;DHT22;360;48.764;9.164;2022-11-20T12:28:21;9.70;1.00
752;DHT22;360;48.764;9.164;2022-11-20T12:31:03;9.80;99.90
752;DHT22;360;48.764;9.164;2022-11-20T12:33:56;9.70;1.00
752;DHT22;360;48.764;9.164;2022-11-20T12:36:36;9.80;99.90
752;DHT22;360;48.764;9.164;2022-11-20T12:39:27;9.90;99.90
752;DHT22;360;48.764;9.164;2022-11-20T12:42:23;9.80;1.00
752;DHT22;360;48.764;9.164;2022-11-20T12:51:57;9.80;29.30
752;DHT22;360;48.764;9.164;2022-11-20T12:54:45;9.80;1.00
752;DHT22;360;48.764;9.164;2022-11-20T12:57:18;9.80;99.90
752;DHT22;360;48.764;9.164;2022-11-20T13:05:37;10.10;99.90
752;DHT22;360;48.764;9.164;2022-11-20T13:28:27;10.00;99.90
752;DHT22;360;48.764;9.164;2022-11-20T13:30:57;9.60;99.90
752;DHT22;360;48.764;9.164;2022-11-20T13:33:29;9.70;99.90
752;DHT22;360;48.764;9.164;2022-11-20T14:51:09;10.00;99.90
752;DHT22;360;48.764;9.164;2022-11-20T15:45:36;8.60;1.00
752;DHT22;360;48.764;9.164;2022-11-20T19:14:09;7.70;99.90
752;DHT22;360;48.764;9.164;2022-11-20T19:21:31;7.30;22.00
752;DHT22;360;48.764;9.164;2022-11-20T19:26:29;7.00;1.00
752;DHT22;360;48.764;9.164;2022-11-20T19:28:55;7.00;1.00
752;DHT22;360;48.764;9.164;2022-11-20T19:31:24;7.00;99.90
752;DHT22;360;48.764;9.164;2022-11-20T19:33:53;7.10;1.00
752;DHT22;360;48.764;9.164;2022-11-20T19:36:22;7.00;49.20
752;DHT22;360;48.764;9.164;2022-11-20T19:38:50;7.00;1.00
752;DHT22;360;48.764;9.164;2022-11-20T19:41:21;7.00;99.90
752;DHT22;360;48.764;9.164;2022-11-20T21:07:27;7.00;99.90
752;DHT22;360;48.764;9.164;2022-11-20T21:12:21;6.60;1.00
752;DHT22;360;48.764;9.164;2022-11-20T21:17:15;6.50;1.00
752;DHT22;360;48.764;9.164;2022-11-20T21:19:42;6.50;1.00
752;DHT22;360;48.764;9.164;2022-11-20T21:22:09;6.50;1.00
752;DHT22;360;48.764;9.164;2022-11-20T21:24:36;6.50;1.00
752;DHT22;360;48.764;9.164;2022-11-20T21:27:04;6.50;9.30
752;DHT22;360;48.764;9.164;2022-11-20T21:29:31;6.50;1.00
752;DHT22;360;48.764;9.164;2022-11-20T21:31:58;6.50;1.00
752;DHT22;360;48.764;9.164;2022-11-20T21:34:25;6.30;1.00
